Walla Walla Regional Airport
KALW : now visible

Airfield :











YOU CAN JOIN US ON...

 
LOGIN :

Register | Disclaimer

   EN    FR    IT 

 









Legend :    VFR   Marginal VFR   IFR   Intensive IFR   Very Intensive IFR
Visi :
Ceiling :
>= 8 km
>= 3000ft
5 to 8 km
1000 to 3000 ft
1500m to 5 km
500 to 1000 ft
800 to 1500m
200 to 500 ft
< 800m
< 200 ft
Symbols :   Thunderstorms  Fog  Heavy snow  Heavy precipitations  Wind > 20 kt






- Airport Elevation : 1194 ft
- IATA code : ALW


KALW - Walla Walla Regional

CURRENT METAR :
  • 240907Z AUTO 28004KT 7SM -RA BKN005 OVC012 02/01 A2997 RMK AO2 CIG 002V009 P0001 T00220011

EXPIRED METARs :
  • 240853Z AUTO 26005KT 5SM -RA BR BKN003 OVC009 02/02 A2997 RMK AO2 SLP155 P0004 60006 I3001 T00220017 53024
  • 240753Z AUTO 18005KT 5SM -RA BR BKN004 OVC012 02/02 A2993 RMK AO2 SLP144 P0001 I1001 T00220017 400831022
  • 240715Z AUTO 19007KT 5SM -RA BR FEW005 BKN010 OVC027 02/02 A2991 RMK AO2 P0001 I1000 T00220017
  • 240653Z AUTO 16007KT 7SM -RA FEW005 SCT010 OVC029 02/01 A2991 RMK AO2 UPB21E24RAB24 SLP135 P0001 I1000 T00220011
  • 240622Z AUTO 16009KT 4SM UP BR FEW004 OVC013 02/01 A2990 RMK AO2 UPB21 P0000 T00220011

TAF KALW
Valid from the 24 at 08:00 until the 25 at 06:00 UTC


240759Z 2408/2506 17009KT 6SM -RA SCT004 OVC030
TEMPO 2408/2411 5SM -RA BKN005 OVC015
FM241100 29008KT 6SM -RASN BR BKN015 OVC050
FM241500 19008KT P6SM BKN050 BKN100
FM250000 01007KT P6SM SKC
KZSE FIR / North America



MET'MAP, your aeronautical weather chart ! - Copyright ORBIFLY December 2007 - Disclaimer

ORBIFLY MET'MAP TEAM :

Programming & Development : Alexandra Zaïnal
Concept & original design : Baudouin d'Aumeries
Assistance for programming : Marc-Olivier Méhu
Technical & hardware support : Manuel Goepfert

Contact : metmap@orbifly.com




SOURCES & CREDITS :

   NOAA       Earth
Advisory